Time;durP1;ratioP1;P1;durP2;ratioP2;P2;SDS_P1;SDS_P2;PMS_P1;PMS_P2;Temp;Humidity;BMP_temperature;BMP_pressure;BME280_temperature;BME280_humidity;BME280_pressure;Samples;Min_cycle;Max_cycle;Signal;HPM_P1;HPM_P2
2024/02/24 00:00:29;;;;;;;4.43;4.17;;;5.10;99.90;;;;;;5051940;28;20320;-71
2024/02/24 00:02:55;;;;;;;4.00;3.70;;;5.10;99.90;;;;;;5053974;28;20258;-71
2024/02/24 00:05:25;;;;;;;3.90;3.70;;;5.10;99.90;;;;;;5071968;28;20558;-70
2024/02/24 00:07:51;;;;;;;4.13;3.87;;;5.10;99.90;;;;;;5054128;28;20174;-71
2024/02/24 00:10:16;;;;;;;4.07;3.87;;;5.10;99.90;;;;;;5071838;28;20174;-70
2024/02/24 00:12:42;;;;;;;4.20;4.00;;;5.20;99.90;;;;;;5071744;28;20178;-71
2024/02/24 00:15:08;;;;;;;4.10;3.80;;;5.20;99.90;;;;;;5071983;28;20287;-72
2024/02/24 00:17:34;;;;;;;4.00;3.80;;;5.20;99.90;;;;;;5058199;28;20206;-72
2024/02/24 00:20:00;;;;;;;4.00;3.80;;;5.20;99.90;;;;;;5052012;28;20174;-71
2024/02/24 00:22:25;;;;;;;4.40;4.10;;;5.20;99.90;;;;;;5051761;28;20244;-72
2024/02/24 00:24:51;;;;;;;4.20;3.90;;;5.20;99.90;;;;;;5051661;28;20187;-71
2024/02/24 00:27:16;;;;;;;4.30;4.00;;;5.20;99.90;;;;;;5051915;28;20167;-72
2024/02/24 00:29:42;;;;;;;3.90;3.60;;;5.20;99.90;;;;;;5033843;28;20265;-72
2024/02/24 00:32:07;;;;;;;4.17;3.77;;;5.20;99.90;;;;;;5063352;28;20174;-71
2024/02/24 00:34:33;;;;;;;3.90;3.70;;;5.20;99.90;;;;;;5071181;28;20206;-71
2024/02/24 00:36:59;;;;;;;3.87;3.67;;;5.20;99.90;;;;;;5072417;28;20174;-72
2024/02/24 00:39:24;;;;;;;4.27;4.07;;;5.20;99.90;;;;;;5072025;28;20291;-74
2024/02/24 00:41:52;;;;;;;4.10;3.90;;;5.30;99.90;;;;;;5071803;28;20194;-71
2024/02/24 00:44:18;;;;;;;3.90;3.70;;;5.30;99.90;;;;;;5068233;28;20189;-71
2024/02/24 00:46:43;;;;;;;4.10;3.90;;;5.30;99.90;;;;;;5051927;28;20170;-72
2024/02/24 00:49:09;;;;;;;4.20;3.97;;;5.30;99.90;;;;;;5051952;28;20170;-71
2024/02/24 00:51:34;;;;;;;4.07;3.87;;;5.30;99.90;;;;;;5051908;28;20181;-72
2024/02/24 00:54:00;;;;;;;4.50;4.20;;;5.30;99.90;;;;;;5052209;28;20273;-72
2024/02/24 00:56:26;;;;;;;3.90;3.70;;;5.30;99.90;;;;;;5051701;28;20253;-71
2024/02/24 00:58:51;;;;;;;4.57;4.27;;;5.30;99.90;;;;;;5053555;28;20225;-72
2024/02/24 01:01:17;;;;;;;4.50;4.20;;;5.30;99.90;;;;;;5072367;28;20530;-71
2024/02/24 01:03:42;;;;;;;4.10;3.80;;;5.30;99.90;;;;;;5070924;28;20186;-72
2024/02/24 01:06:08;;;;;;;4.17;3.97;;;5.20;99.90;;;;;;5071443;28;20173;-71
2024/02/24 01:08:33;;;;;;;4.40;4.10;;;5.20;99.90;;;;;;5070801;28;20271;-71
2024/02/24 01:10:59;;;;;;;4.00;3.70;;;5.10;99.90;;;;;;5051467;28;20505;-71
2024/02/24 01:13:24;;;;;;;3.90;3.70;;;5.10;99.90;;;;;;5062087;28;20651;-72
2024/02/24 01:15:50;;;;;;;4.40;4.20;;;5.00;99.90;;;;;;5053200;28;20538;-71
2024/02/24 01:18:16;;;;;;;4.30;4.10;;;5.00;99.90;;;;;;5071331;28;20198;-72
2024/02/24 01:20:48;;;;;;;4.40;4.10;;;5.00;99.90;;;;;;5070805;28;20178;-72
2024/02/24 01:23:14;;;;;;;4.57;4.37;;;4.90;99.90;;;;;;5070976;28;20356;-72
2024/02/24 01:25:39;;;;;;;4.47;4.27;;;4.90;99.90;;;;;;5070933;28;20194;-72
2024/02/24 01:28:05;;;;;;;4.33;4.00;;;4.90;99.90;;;;;;5060253;28;20183;-71
2024/02/24 01:30:31;;;;;;;4.83;4.33;;;4.90;99.90;;;;;;5050806;28;20191;-73
2024/02/24 01:32:56;;;;;;;4.57;4.37;;;4.90;99.90;;;;;;5050887;28;20177;-71
2024/02/24 01:35:22;;;;;;;4.77;4.47;;;4.90;99.90;;;;;;5050872;28;20210;-72
2024/02/24 01:37:47;;;;;;;4.77;4.47;;;4.90;99.90;;;;;;5050710;28;20203;-71
2024/02/24 01:40:16;;;;;;;4.67;4.33;;;4.90;99.90;;;;;;5052179;28;20579;-71
2024/02/24 01:42:43;;;;;;;5.00;4.43;;;4.90;99.90;;;;;;5052485;28;20198;-73
2024/02/24 01:45:09;;;;;;;5.40;5.00;;;4.90;99.90;;;;;;5054660;28;20193;-72
2024/02/24 01:47:35;;;;;;;5.10;4.80;;;4.90;99.90;;;;;;5050763;28;20257;-71
2024/02/24 01:50:01;;;;;;;5.00;4.70;;;4.90;99.90;;;;;;5050820;28;20270;-71
2024/02/24 01:52:26;;;;;;;5.00;4.70;;;4.90;99.90;;;;;;5050834;28;20171;-71
2024/02/24 01:54:58;;;;;;;5.07;4.67;;;4.90;99.90;;;;;;5067358;28;20198;-72
2024/02/24 01:57:27;;;;;;;5.77;5.37;;;5.00;99.90;;;;;;5074951;28;20181;-72
2024/02/24 01:59:54;;;;;;;5.57;5.17;;;5.00;99.90;;;;;;5074839;28;20173;-71
2024/02/24 02:02:20;;;;;;;5.77;5.00;;;5.00;99.90;;;;;;5074746;28;20162;-71
2024/02/24 02:04:45;;;;;;;4.50;4.20;;;5.00;99.90;;;;;;5073754;28;20201;-71
2024/02/24 02:07:11;;;;;;;4.40;4.20;;;5.00;99.90;;;;;;5073313;28;20180;-71
2024/02/24 02:09:54;;;;;;;4.50;4.30;;;5.00;99.90;;;;;;5074484;28;20538;-72
2024/02/24 02:12:19;;;;;;;5.33;5.03;;;5.00;99.90;;;;;;5056590;28;20530;-71
2024/02/24 02:14:45;;;;;;;5.23;4.87;;;5.00;99.90;;;;;;5057585;28;20201;-71
2024/02/24 02:17:11;;;;;;;4.87;4.57;;;5.10;99.90;;;;;;5054358;28;20174;-71
2024/02/24 02:19:36;;;;;;;5.73;4.83;;;5.10;99.90;;;;;;5055225;28;20166;-72
2024/02/24 02:22:03;;;;;;;5.00;4.70;;;5.10;99.90;;;;;;5054367;28;20171;-72
2024/02/24 02:24:28;;;;;;;5.37;5.00;;;5.10;99.90;;;;;;5053915;28;20801;-71
2024/02/24 02:26:54;;;;;;;5.17;4.67;;;5.10;99.90;;;;;;5054639;28;20194;-72
2024/02/24 02:29:20;;;;;;;4.90;4.60;;;5.10;99.90;;;;;;5053967;28;20538;-72
2024/02/24 02:31:45;;;;;;;5.30;4.90;;;5.10;99.90;;;;;;5053971;28;20178;-72
2024/02/24 02:34:11;;;;;;;4.63;4.43;;;5.10;99.90;;;;;;5067274;28;20301;-72
2024/02/24 02:36:36;;;;;;;5.07;4.73;;;5.10;99.90;;;;;;5073938;28;20202;-72
2024/02/24 02:39:02;;;;;;;4.67;4.37;;;5.10;99.90;;;;;;5073939;28;20293;-72
2024/02/24 02:41:28;;;;;;;4.70;4.40;;;5.10;99.90;;;;;;5073860;28;20170;-72
2024/02/24 02:43:53;;;;;;;4.47;4.17;;;5.10;99.90;;;;;;5073758;28;20258;-71
2024/02/24 02:46:19;;;;;;;4.70;4.40;;;5.10;99.90;;;;;;5074010;28;20170;-71
2024/02/24 02:48:45;;;;;;;4.93;4.57;;;5.10;99.90;;;;;;5061544;28;20251;-71
2024/02/24 02:51:10;;;;;;;4.70;4.40;;;5.10;99.90;;;;;;5053962;28;20171;-72
2024/02/24 02:53:36;;;;;;;4.93;4.50;;;5.10;99.90;;;;;;5053581;28;20296;-71
2024/02/24 02:56:01;;;;;;;5.00;4.67;;;5.10;99.90;;;;;;5054006;28;20182;-71
2024/02/24 02:58:27;;;;;;;5.03;4.73;;;5.10;99.90;;;;;;5053943;28;20203;-73
2024/02/24 03:00:52;;;;;;;5.20;4.70;;;5.10;99.90;;;;;;5056434;28;20182;-71
2024/02/24 03:03:18;;;;;;;5.07;4.77;;;5.00;99.90;;;;;;5073021;28;20172;-72
2024/02/24 03:05:43;;;;;;;5.13;4.83;;;5.00;99.90;;;;;;5073099;28;20609;-71
2024/02/24 03:08:09;;;;;;;5.10;4.80;;;4.90;99.90;;;;;;5057038;28;20270;-71
2024/02/24 03:10:36;;;;;;;5.63;5.33;;;4.80;99.90;;;;;;5053214;28;20249;-71
2024/02/24 03:13:01;;;;;;;5.53;5.10;;;4.80;99.90;;;;;;5057716;28;20185;-71
2024/02/24 03:15:27;;;;;;;5.03;4.73;;;4.70;99.90;;;;;;5073408;28;20198;-71
2024/02/24 03:17:53;;;;;;;5.60;5.10;;;4.70;99.90;;;;;;5073673;28;20564;-71
2024/02/24 03:20:18;;;;;;;5.10;4.70;;;4.70;99.90;;;;;;5073549;28;20193;-71
2024/02/24 03:22:44;;;;;;;5.57;5.17;;;4.60;99.90;;;;;;5072469;28;20253;-70
2024/02/24 03:25:09;;;;;;;5.10;4.80;;;4.60;99.90;;;;;;5073462;28;20259;-71
2024/02/24 03:27:35;;;;;;;5.20;4.77;;;4.60;99.90;;;;;;5073401;28;20170;-71
2024/02/24 03:30:01;;;;;;;5.20;4.90;;;4.50;99.90;;;;;;5043223;28;20183;-71
2024/02/24 03:32:26;;;;;;;5.47;4.93;;;4.60;99.90;;;;;;5053388;28;20308;-72
2024/02/24 03:34:52;;;;;;;5.80;5.40;;;4.60;99.90;;;;;;5187688;22;20266;-71
2024/02/24 03:37:17;;;;;;;6.13;5.67;;;4.60;99.90;;;;;;5093523;28;20178;-71
2024/02/24 03:39:43;;;;;;;5.90;5.40;;;4.60;99.90;;;;;;5093195;28;20180;-71
2024/02/24 03:42:09;;;;;;;5.10;4.80;;;4.50;99.90;;;;;;5093418;28;20162;-71
2024/02/24 03:44:34;;;;;;;6.03;5.43;;;4.50;99.90;;;;;;5093491;28;20234;-72
2024/02/24 03:47:00;;;;;;;5.37;5.07;;;4.50;99.90;;;;;;5093438;28;20634;-71
2024/02/24 03:49:25;;;;;;;5.33;4.97;;;4.50;99.90;;;;;;5093265;28;20165;-71
2024/02/24 03:51:51;;;;;;;6.10;5.70;;;4.50;99.90;;;;;;5093188;28;20173;-71
2024/02/24 03:54:16;;;;;;;5.40;4.90;;;4.40;99.90;;;;;;5092934;28;20169;-71
2024/02/24 03:56:42;;;;;;;5.27;4.97;;;4.40;99.90;;;;;;5082753;28;20630;-71
2024/02/24 03:59:08;;;;;;;5.60;5.20;;;4.40;99.90;;;;;;5072720;28;20198;-71
2024/02/24 04:01:34;;;;;;;6.07;5.60;;;4.40;99.90;;;;;;5072745;28;20182;-71
2024/02/24 04:03:59;;;;;;;6.23;5.83;;;4.30;99.90;;;;;;5072396;28;20166;-71
2024/02/24 04:06:25;;;;;;;6.00;5.40;;;4.30;99.90;;;;;;5072552;28;20702;-72
2024/02/24 04:08:50;;;;;;;5.57;5.07;;;4.20;99.90;;;;;;5072767;28;20178;-71
2024/02/24 04:11:16;;;;;;;5.90;5.30;;;4.20;99.90;;;;;;5072739;28;20174;-71
2024/02/24 04:13:41;;;;;;;5.70;5.33;;;4.20;99.90;;;;;;5072350;28;20170;-72
2024/02/24 04:16:07;;;;;;;5.47;5.07;;;4.20;99.90;;;;;;5083081;28;20262;-71
2024/02/24 04:18:33;;;;;;;8.50;5.33;;;4.30;99.90;;;;;;5091385;28;20292;-71
2024/02/24 04:20:59;;;;;;;5.13;4.83;;;4.40;99.90;;;;;;5092695;28;20209;-72
2024/02/24 04:23:25;;;;;;;5.50;5.00;;;4.50;99.90;;;;;;5092746;28;20169;-71
2024/02/24 04:25:50;;;;;;;6.93;5.30;;;4.60;99.90;;;;;;5072660;28;20212;-71
2024/02/24 04:28:16;;;;;;;5.27;4.87;;;4.70;99.90;;;;;;5072366;28;20200;-72
2024/02/24 04:30:41;;;;;;;6.23;4.90;;;4.80;99.90;;;;;;5072000;28;20649;-72
2024/02/24 04:33:07;;;;;;;5.60;5.10;;;4.80;99.90;;;;;;5071918;28;20174;-72
2024/02/24 04:35:33;;;;;;;5.17;4.70;;;4.90;99.90;;;;;;5071990;28;20701;-72
2024/02/24 04:37:58;;;;;;;4.93;4.60;;;4.90;99.90;;;;;;5072031;28;20229;-71
2024/02/24 04:40:24;;;;;;;5.77;4.87;;;4.90;99.90;;;;;;5078107;28;20188;-71
2024/02/24 04:42:50;;;;;;;4.83;4.47;;;4.90;99.90;;;;;;5071430;28;20264;-71
2024/02/24 04:45:16;;;;;;;5.00;4.60;;;4.90;99.90;;;;;;5071904;28;20550;-71
2024/02/24 04:47:42;;;;;;;5.30;4.90;;;4.90;99.90;;;;;;5071926;28;20619;-71
2024/02/24 04:50:08;;;;;;;4.70;4.40;;;5.00;99.90;;;;;;5072339;28;20186;-71
2024/02/24 04:52:33;;;;;;;5.57;5.17;;;4.90;99.90;;;;;;5080000;28;20185;-72
2024/02/24 04:54:59;;;;;;;4.87;4.40;;;4.90;99.90;;;;;;5091711;28;20249;-71
2024/02/24 04:57:24;;;;;;;5.30;4.80;;;4.80;99.90;;;;;;5092071;28;20610;-71
2024/02/24 04:59:50;;;;;;;5.57;5.00;;;4.80;99.90;;;;;;5091689;28;20177;-71
2024/02/24 05:02:16;;;;;;;5.60;5.00;;;4.80;99.90;;;;;;5074527;28;20206;-72
2024/02/24 05:04:41;;;;;;;5.33;4.93;;;4.80;99.90;;;;;;5070802;28;20259;-71
2024/02/24 05:07:07;;;;;;;5.47;4.97;;;4.70;99.90;;;;;;5071723;28;20170;-72
2024/02/24 05:09:33;;;;;;;5.20;4.70;;;4.70;99.90;;;;;;5071320;28;20206;-71
2024/02/24 05:11:58;;;;;;;5.00;4.70;;;4.70;99.90;;;;;;5071491;28;20197;-71
2024/02/24 05:14:24;;;;;;;5.27;4.87;;;4.70;99.90;;;;;;5071306;28;20269;-72
2024/02/24 05:16:49;;;;;;;5.03;4.67;;;4.60;99.90;;;;;;5086258;28;20198;-71
2024/02/24 05:19:15;;;;;;;4.70;4.40;;;4.60;99.90;;;;;;5091673;28;20292;-72
2024/02/24 05:21:40;;;;;;;5.67;5.27;;;4.60;99.90;;;;;;5073599;28;20546;-72
2024/02/24 05:24:06;;;;;;;5.40;5.10;;;4.70;99.90;;;;;;5071399;28;20177;-72
2024/02/24 05:26:32;;;;;;;5.20;4.77;;;4.80;99.90;;;;;;5071268;28;20216;-71
2024/02/24 05:28:58;;;;;;;5.13;4.63;;;4.80;99.90;;;;;;5071338;28;20178;-71
2024/02/24 05:31:24;;;;;;;5.10;4.80;;;4.80;99.90;;;;;;5071589;28;20272;-71
2024/02/24 05:33:51;;;;;;;5.47;5.07;;;4.90;99.90;;;;;;5071000;28;20269;-72
2024/02/24 05:36:18;;;;;;;5.10;4.80;;;4.90;99.90;;;;;;5086958;28;20209;-71
2024/02/24 05:38:44;;;;;;;5.00;4.70;;;4.90;99.90;;;;;;5091003;28;20286;-71
2024/02/24 05:41:09;;;;;;;5.90;5.43;;;4.90;99.90;;;;;;5091424;28;20256;-71
2024/02/24 05:43:35;;;;;;;5.43;5.03;;;5.00;99.90;;;;;;5091130;28;20545;-71
2024/02/24 05:46:06;;;;;;;5.50;5.03;;;5.10;99.90;;;;;;5089461;28;20193;-71
2024/02/24 05:48:36;;;;;;;5.43;5.03;;;5.00;99.90;;;;;;5091578;28;20673;-71
2024/02/24 05:51:04;;;;;;;5.40;5.00;;;5.00;99.90;;;;;;5091239;28;20230;-71
2024/02/24 05:53:30;;;;;;;6.27;5.73;;;5.00;99.90;;;;;;5091294;28;20178;-71
2024/02/24 05:55:56;;;;;;;6.10;4.97;;;5.00;99.90;;;;;;5091075;28;20330;-72
2024/02/24 05:58:21;;;;;;;5.43;5.00;;;5.00;99.90;;;;;;5091226;28;20284;-71
2024/02/24 06:00:47;;;;;;;4.93;4.60;;;5.00;99.90;;;;;;5089242;28;20170;-71
2024/02/24 06:03:13;;;;;;;5.13;4.83;;;5.00;99.90;;;;;;5090727;28;20582;-72
2024/02/24 06:05:39;;;;;;;5.60;5.20;;;4.90;99.90;;;;;;5091105;28;20190;-71
2024/02/24 06:08:05;;;;;;;5.07;4.67;;;4.90;99.90;;;;;;5091394;28;20182;-72
2024/02/24 06:10:31;;;;;;;4.77;4.37;;;4.90;99.90;;;;;;5091603;28;20181;-71
2024/02/24 06:13:01;;;;;;;5.43;5.03;;;4.90;99.90;;;;;;5090714;28;20178;-71
2024/02/24 06:15:27;;;;;;;4.90;4.60;;;4.90;99.90;;;;;;5073099;28;20202;-72
2024/02/24 06:17:52;;;;;;;5.23;4.83;;;4.90;99.90;;;;;;5070677;28;20304;-71
2024/02/24 06:20:18;;;;;;;5.17;4.87;;;5.00;99.90;;;;;;5070903;28;20269;-71
2024/02/24 06:22:43;;;;;;;5.57;5.07;;;5.00;99.90;;;;;;5070493;28;20249;-71
2024/02/24 06:25:10;;;;;;;4.97;4.60;;;5.00;99.90;;;;;;5070895;28;20198;-71
2024/02/24 06:27:36;;;;;;;4.80;4.50;;;5.10;99.90;;;;;;5070848;28;20258;-71
2024/02/24 06:30:02;;;;;;;5.30;4.90;;;5.10;99.90;;;;;;5086807;28;20281;-71
2024/02/24 06:32:27;;;;;;;5.17;4.67;;;5.20;99.90;;;;;;5090975;28;20223;-72
2024/02/24 06:34:53;;;;;;;5.20;4.80;;;5.20;99.90;;;;;;5090545;28;20209;-71
2024/02/24 06:37:19;;;;;;;5.37;4.97;;;5.20;99.90;;;;;;5090894;28;20209;-72
2024/02/24 06:39:45;;;;;;;5.20;4.80;;;5.30;99.90;;;;;;5090574;28;20178;-71
2024/02/24 06:42:10;;;;;;;5.40;4.90;;;5.30;99.90;;;;;;5094054;28;20177;-71
2024/02/24 06:44:36;;;;;;;4.43;4.23;;;5.30;99.90;;;;;;5078768;28;20198;-72
2024/02/24 06:47:01;;;;;;;5.77;5.27;;;5.30;99.90;;;;;;5073939;28;20215;-72
2024/02/24 06:49:27;;;;;;;4.83;4.50;;;5.30;99.90;;;;;;5073921;28;20182;-71
2024/02/24 06:51:53;;;;;;;4.90;4.50;;;5.30;99.90;;;;;;5074280;28;20181;-71
2024/02/24 06:54:19;;;;;;;5.20;4.90;;;5.40;99.90;;;;;;5082966;28;20181;-71
2024/02/24 06:56:44;;;;;;;5.03;4.63;;;5.30;99.90;;;;;;5093912;28;20649;-71
2024/02/24 06:59:10;;;;;;;5.30;5.00;;;5.30;99.90;;;;;;5094082;28;20197;-71
2024/02/24 07:01:35;;;;;;;4.80;4.50;;;5.30;99.90;;;;;;5094063;28;20663;-72
2024/02/24 07:04:02;;;;;;;5.20;4.80;;;5.30;99.90;;;;;;5083575;28;20182;-72
2024/02/24 07:06:28;;;;;;;5.10;4.80;;;5.30;99.90;;;;;;5073949;28;20194;-71
2024/02/24 07:08:53;;;;;;;5.10;4.70;;;5.30;99.90;;;;;;5073394;28;20185;-71
2024/02/24 07:11:19;;;;;;;5.00;4.60;;;5.30;99.90;;;;;;5074736;28;20181;-71
2024/02/24 07:13:45;;;;;;;5.57;5.13;;;5.40;99.90;;;;;;5081018;28;20196;-71
2024/02/24 07:16:11;;;;;;;5.27;4.77;;;5.40;99.90;;;;;;5093776;28;20674;-73
2024/02/24 07:18:37;;;;;;;5.03;4.73;;;5.40;99.90;;;;;;5092142;28;20209;-71
2024/02/24 07:21:03;;;;;;;5.27;4.87;;;5.50;99.90;;;;;;5093618;28;20173;-71
2024/02/24 07:23:30;;;;;;;5.10;4.80;;;5.50;99.90;;;;;;5093783;28;20223;-71
2024/02/24 07:25:56;;;;;;;4.80;4.50;;;5.50;99.90;;;;;;5093457;28;20288;-71
2024/02/24 07:28:22;;;;;;;4.97;4.67;;;5.60;99.90;;;;;;5090227;28;20272;-72
2024/02/24 07:30:48;;;;;;;4.93;4.60;;;5.60;99.90;;;;;;5093435;28;20177;-71
2024/02/24 07:33:14;;;;;;;5.30;4.87;;;5.60;99.90;;;;;;5093817;28;20189;-71
2024/02/24 07:35:40;;;;;;;5.10;4.80;;;5.60;99.90;;;;;;5087648;28;20713;-71
2024/02/24 07:38:06;;;;;;;5.83;5.00;;;5.70;99.90;;;;;;5073022;28;20206;-72
2024/02/24 07:40:34;;;;;;;6.13;5.43;;;5.70;99.90;;;;;;5085525;28;20557;-72
2024/02/24 07:43:03;;;;;;;6.10;5.50;;;5.70;99.90;;;;;;5093135;28;20174;-71
2024/02/24 07:45:28;;;;;;;5.73;5.20;;;5.80;99.90;;;;;;5093579;28;20190;-71
2024/02/24 07:47:54;;;;;;;10.27;5.73;;;5.80;99.90;;;;;;5093246;28;20170;-72
2024/02/24 07:50:20;;;;;;;6.37;5.80;;;5.80;99.90;;;;;;5093243;28;20257;-71
2024/02/24 07:52:46;;;;;;;6.60;6.00;;;5.80;99.90;;;;;;5092893;28;20177;-72
2024/02/24 07:55:11;;;;;;;7.33;5.97;;;5.80;99.90;;;;;;5080143;28;20205;-71
2024/02/24 07:57:37;;;;;;;6.70;6.00;;;5.80;99.90;;;;;;5072730;28;20255;-72
2024/02/24 08:00:04;;;;;;;9.90;6.17;;;5.80;99.90;;;;;;5072385;28;20175;-71
2024/02/24 08:02:30;;;;;;;8.50;6.10;;;5.70;99.90;;;;;;5072331;28;20558;-71
2024/02/24 08:04:56;;;;;;;7.53;5.93;;;5.70;99.90;;;;;;5071445;28;20666;-72
2024/02/24 08:07:22;;;;;;;7.00;6.30;;;5.70;99.90;;;;;;5072452;28;20241;-72
2024/02/24 08:09:47;;;;;;;7.73;6.27;;;5.80;99.90;;;;;;5082112;28;20177;-72
2024/02/24 08:12:13;;;;;;;6.53;5.30;;;5.80;99.90;;;;;;5092495;28;20234;-72
2024/02/24 08:14:39;;;;;;;7.03;5.57;;;5.80;99.90;;;;;;5092371;28;20190;-73
2024/02/24 08:17:04;;;;;;;6.10;5.20;;;5.80;99.90;;;;;;5092097;28;20649;-73
2024/02/24 08:19:33;;;;;;;5.27;4.77;;;5.90;99.90;;;;;;5092203;28;20197;-72
2024/02/24 08:22:00;;;;;;;4.90;4.60;;;5.90;99.90;;;;;;5092057;28;20208;-72
2024/02/24 08:24:25;;;;;;;5.30;4.87;;;5.90;99.90;;;;;;5082521;28;20174;-72
2024/02/24 08:26:51;;;;;;;5.27;4.87;;;5.90;99.90;;;;;;5071663;28;20181;-72
2024/02/24 08:29:17;;;;;;;5.63;5.17;;;5.90;99.90;;;;;;5072046;28;20181;-73
2024/02/24 08:31:42;;;;;;;4.63;4.33;;;6.00;99.90;;;;;;5071927;28;20673;-73
2024/02/24 08:34:08;;;;;;;5.83;4.20;;;6.00;99.90;;;;;;5071802;28;20554;-74
2024/02/24 08:36:34;;;;;;;4.00;3.80;;;5.90;99.90;;;;;;5072227;28;20588;-73
2024/02/24 08:39:00;;;;;;;4.00;3.80;;;5.80;99.90;;;;;;5091344;28;20211;-73
2024/02/24 08:41:26;;;;;;;4.40;4.00;;;5.70;99.90;;;;;;5092224;28;20172;-73
2024/02/24 08:43:52;;;;;;;4.30;3.97;;;5.70;99.90;;;;;;5091702;28;20188;-73
2024/02/24 08:46:21;;;;;;;4.17;3.87;;;5.70;99.90;;;;;;5091790;28;20189;-73
2024/02/24 08:48:46;;;;;;;6.23;4.10;;;5.60;99.90;;;;;;5071528;28;20178;-73
2024/02/24 08:51:12;;;;;;;4.27;3.97;;;5.70;99.90;;;;;;5072291;28;20178;-73
2024/02/24 08:53:38;;;;;;;4.23;3.87;;;5.80;99.90;;;;;;5077226;28;20634;-73
2024/02/24 08:56:05;;;;;;;4.70;4.30;;;5.90;99.90;;;;;;5071372;28;20595;-73
2024/02/24 08:58:31;;;;;;;4.20;3.90;;;5.90;99.90;;;;;;5071504;28;20229;-73
2024/02/24 09:00:58;;;;;;;4.13;3.93;;;5.80;99.90;;;;;;5071019;28;20253;-73
2024/02/24 09:03:24;;;;;;;4.33;4.03;;;5.90;99.90;;;;;;5070457;28;20653;-73
2024/02/24 09:05:49;;;;;;;4.10;3.90;;;6.00;99.90;;;;;;5071298;28;20221;-73
2024/02/24 09:08:15;;;;;;;3.90;3.70;;;6.00;99.90;;;;;;5082907;28;20185;-72
2024/02/24 09:10:41;;;;;;;4.20;3.90;;;6.00;99.90;;;;;;5091772;28;20194;-73
2024/02/24 09:13:08;;;;;;;3.70;3.50;;;6.00;99.90;;;;;;5091191;28;20174;-73
2024/02/24 09:15:33;;;;;;;3.87;3.33;;;6.00;99.90;;;;;;5090432;28;20282;-75
2024/02/24 09:17:59;;;;;;;3.50;3.30;;;6.10;99.90;;;;;;5091701;28;20205;-73
2024/02/24 09:20:26;;;;;;;3.23;3.03;;;6.40;99.90;;;;;;5091718;28;20669;-73
2024/02/24 09:22:51;;;;;;;3.43;3.20;;;6.60;99.90;;;;;;5078651;28;20528;-73
2024/02/24 09:25:17;;;;;;;3.00;2.90;;;6.60;99.90;;;;;;5071497;28;20269;-73
2024/02/24 09:27:43;;;;;;;3.13;2.93;;;6.80;99.90;;;;;;5071713;28;20166;-74
2024/02/24 09:30:12;;;;;;;3.20;3.00;;;7.30;99.90;;;;;;5071473;28;20173;-73
2024/02/24 09:32:41;;;;;;;4.03;3.20;;;7.60;99.90;;;;;;5071234;28;20174;-74
2024/02/24 09:35:08;;;;;;;3.53;3.33;;;7.90;99.90;;;;;;5075072;28;20213;-74
2024/02/24 09:37:36;;;;;;;3.57;3.27;;;7.90;99.90;;;;;;5092835;28;20173;-74
2024/02/24 09:40:05;;;;;;;4.23;3.10;;;7.90;99.90;;;;;;5092872;28;20622;-73
2024/02/24 09:42:31;;;;;;;3.10;3.00;;;7.90;99.90;;;;;;5092084;28;20200;-74
2024/02/24 09:45:04;;;;;;;3.70;3.40;;;7.80;99.90;;;;;;5090558;28;20236;-74
2024/02/24 09:47:30;;;;;;;3.47;3.00;;;7.70;99.90;;;;;;5091237;28;20252;-73
2024/02/24 09:50:00;;;;;;;3.33;3.13;;;7.70;99.90;;;;;;5086862;28;20170;-73
2024/02/24 09:52:25;;;;;;;3.50;2.90;;;8.10;99.90;;;;;;5070936;28;20166;-74
2024/02/24 09:54:51;;;;;;;3.27;2.97;;;8.80;99.90;;;;;;5070362;28;20189;-73
2024/02/24 09:57:18;;;;;;;2.87;2.67;;;9.30;99.90;;;;;;5084700;28;20174;-73
2024/02/24 09:59:48;;;;;;;3.33;3.03;;;9.30;99.90;;;;;;5091129;28;20204;-74
2024/02/24 10:02:14;;;;;;;3.30;3.00;;;9.20;99.90;;;;;;5090835;28;20533;-73
2024/02/24 10:04:40;;;;;;;2.97;2.70;;;9.40;99.90;;;;;;5090467;28;20204;-73
2024/02/24 10:07:06;;;;;;;4.07;3.03;;;9.40;99.90;;;;;;5091297;28;20173;-73
2024/02/24 10:09:33;;;;;;;4.20;2.97;;;9.20;99.90;;;;;;5091394;28;20222;-73
2024/02/24 10:12:00;;;;;;;3.83;2.60;;;9.00;99.90;;;;;;5090286;28;20174;-72
2024/02/24 10:14:32;;;;;;;2.77;2.60;;;9.30;99.90;;;;;;5091518;28;20169;-72
2024/02/24 10:16:59;;;;;;;2.93;2.73;;;9.40;99.90;;;;;;5094406;28;20192;-72
2024/02/24 10:19:30;;;;;;;2.70;2.60;;;9.10;99.90;;;;;;5078400;28;20206;-72
2024/02/24 10:21:57;;;;;;;2.67;2.53;;;8.90;99.90;;;;;;5074734;28;20164;-73
2024/02/24 10:24:23;;;;;;;3.50;3.23;;;8.70;99.90;;;;;;5074539;28;20208;-73
2024/02/24 10:26:52;;;;;;;3.00;2.70;;;8.40;99.90;;;;;;5075007;28;20253;-73
2024/02/24 10:29:20;;;;;;;3.40;3.20;;;8.30;99.90;;;;;;5075658;28;20171;-74
2024/02/24 10:31:49;;;;;;;2.93;2.83;;;8.10;99.90;;;;;;5084098;28;20646;-72
2024/02/24 10:34:19;;;;;;;3.70;3.40;;;8.10;99.90;;;;;;5095826;28;20166;-72
2024/02/24 10:36:49;;;;;;;3.17;3.00;;;8.20;99.90;;;;;;5095776;28;20654;-71
2024/02/24 10:39:15;;;;;;;3.30;3.00;;;8.20;99.90;;;;;;5094403;28;20730;-72
2024/02/24 10:41:43;;;;;;;3.37;3.07;;;8.10;99.90;;;;;;5080655;28;20178;-73
2024/02/24 10:44:10;;;;;;;3.70;3.40;;;8.20;99.90;;;;;;5075273;28;20217;-72
2024/02/24 10:46:35;;;;;;;3.30;3.00;;;8.20;99.90;;;;;;5075343;28;20186;-72
2024/02/24 10:49:01;;;;;;;3.00;2.90;;;8.20;99.90;;;;;;5075259;28;20247;-72
2024/02/24 10:51:27;;;;;;;4.70;3.20;;;8.20;99.90;;;;;;5075178;28;20177;-72
2024/02/24 10:53:55;;;;;;;3.07;2.90;;;8.30;99.90;;;;;;5074024;28;20647;-72
2024/02/24 10:56:21;;;;;;;3.37;3.07;;;8.30;99.90;;;;;;5087029;28;20193;-72
2024/02/24 10:58:47;;;;;;;3.50;3.20;;;8.30;99.90;;;;;;5094535;28;20197;-72
2024/02/24 11:01:14;;;;;;;3.00;2.90;;;8.40;99.90;;;;;;5073748;28;20193;-72
2024/02/24 11:03:39;;;;;;;3.80;3.10;;;8.40;99.90;;;;;;5073567;28;20166;-72
2024/02/24 11:06:06;;;;;;;3.50;3.20;;;8.40;99.90;;;;;;5073664;28;20182;-72
2024/02/24 11:08:44;;;;;;;2.90;2.70;;;8.70;99.90;;;;;;5073948;28;20174;-72
2024/02/24 11:11:12;;;;;;;3.20;3.00;;;9.00;99.90;;;;;;5073593;28;20212;-74
2024/02/24 11:13:46;;;;;;;3.13;2.97;;;9.20;99.90;;;;;;5076928;28;20189;-73
2024/02/24 11:16:12;;;;;;;3.47;3.17;;;9.20;99.90;;;;;;5073778;28;20185;-73
2024/02/24 11:18:49;;;;;;;3.00;2.90;;;9.40;99.90;;;;;;5073457;28;20213;-71
2024/02/24 11:21:19;;;;;;;2.70;2.60;;;9.70;99.90;;;;;;5073407;28;20170;-73
2024/02/24 11:23:46;;;;;;;3.00;2.60;;;9.90;99.90;;;;;;5073707;28;20166;-72
2024/02/24 11:26:12;;;;;;;2.93;2.60;;;10.10;99.90;;;;;;5074216;28;20674;-73
2024/02/24 11:28:58;;;;;;;3.90;2.60;;;10.10;99.90;;;;;;5073775;28;20176;-73
2024/02/24 11:31:29;;;;;;;2.93;2.80;;;10.10;99.90;;;;;;5073578;28;20162;-73
2024/02/24 11:34:06;;;;;;;2.80;2.60;;;10.10;99.90;;;;;;5073420;28;20179;-72
2024/02/24 11:36:34;;;;;;;3.10;2.80;;;10.00;99.90;;;;;;5075011;28;20205;-73
2024/02/24 11:39:02;;;;;;;2.80;2.60;;;9.90;99.90;;;;;;5073247;28;20573;-72
2024/02/24 11:41:31;;;;;;;3.10;2.90;;;9.60;99.90;;;;;;5073236;28;20639;-73
2024/02/24 11:43:57;;;;;;;3.20;3.00;;;9.40;99.90;;;;;;5072890;28;20163;-73
2024/02/24 11:46:23;;;;;;;3.10;2.80;;;9.20;99.90;;;;;;5074788;28;20264;-73
2024/02/24 11:48:55;;;;;;;3.03;2.80;;;8.90;99.90;;;;;;5075511;28;20205;-72
2024/02/24 11:51:24;;;;;;;2.90;2.70;;;8.70;99.90;;;;;;5075602;28;20720;-72
2024/02/24 11:53:52;;;;;;;3.07;2.87;;;8.70;99.90;;;;;;5072942;28;20173;-72
2024/02/24 11:56:18;;;;;;;3.90;3.10;;;8.60;99.90;;;;;;5074798;28;20222;-71
2024/02/24 11:58:44;;;;;;;2.90;2.73;;;8.60;99.90;;;;;;5073864;28;20248;-73
2024/02/24 12:01:12;;;;;;;3.67;3.37;;;8.70;99.90;;;;;;5074743;28;20238;-72
2024/02/24 12:03:38;;;;;;;3.20;3.00;;;8.90;99.90;;;;;;5073089;28;20633;-71
2024/02/24 12:06:06;;;;;;;3.00;2.80;;;9.10;99.90;;;;;;5072490;28;20269;-71
2024/02/24 12:08:32;;;;;;;2.97;2.87;;;9.20;99.90;;;;;;5072999;28;20202;-71
2024/02/24 12:10:57;;;;;;;3.57;3.07;;;9.40;99.90;;;;;;5087871;28;20200;-72
2024/02/24 12:13:23;;;;;;;3.20;2.87;;;9.60;99.90;;;;;;5093193;28;20169;-72
2024/02/24 12:15:50;;;;;;;3.00;2.67;;;9.80;99.90;;;;;;5093093;28;20217;-72
2024/02/24 12:18:16;;;;;;;2.70;2.50;;;9.90;99.90;;;;;;5094768;28;20203;-72
2024/02/24 12:20:43;;;;;;;2.63;2.43;;;9.90;99.90;;;;;;5093099;28;20174;-73
2024/02/24 12:23:10;;;;;;;2.90;2.70;;;10.10;99.90;;;;;;5093333;28;20643;-73
2024/02/24 12:25:37;;;;;;;3.00;2.80;;;10.10;99.90;;;;;;5094227;28;20189;-73
2024/02/24 12:28:04;;;;;;;2.80;2.60;;;10.00;99.90;;;;;;5091875;28;20537;-72
2024/02/24 12:30:40;;;;;;;6.73;4.73;;;9.80;99.90;;;;;;5093821;28;20181;-73
2024/02/24 12:33:10;;;;;;;3.00;2.80;;;9.70;99.90;;;;;;5090881;28;20169;-73
2024/02/24 12:35:37;;;;;;;3.07;2.87;;;9.50;99.90;;;;;;5072502;28;20691;-72
2024/02/24 12:38:04;;;;;;;3.53;3.10;;;9.40;98.20;;;;;;5072614;28;20190;-72
2024/02/24 12:40:30;;;;;;;4.80;2.80;;;9.30;98.80;;;;;;5079427;28;20176;-72
2024/02/24 12:42:56;;;;;;;2.80;2.70;;;9.30;99.20;;;;;;5092299;28;20204;-72
2024/02/24 12:45:22;;;;;;;3.50;2.93;;;9.40;99.90;;;;;;5091022;28;20551;-72
2024/02/24 12:47:50;;;;;;;3.10;2.90;;;9.50;99.60;;;;;;5082030;28;20178;-73
2024/02/24 12:50:19;;;;;;;3.03;2.73;;;9.50;97.70;;;;;;5072331;28;20613;-74
2024/02/24 12:52:46;;;;;;;3.10;2.90;;;9.60;99.80;;;;;;5071218;28;20586;-72